Flight Track Log - Related Links

Times and Time Zones

All times are in EDT time to prevent confusion due to time zone crossing. See the UAL33 flight status page for this flight to view local times or setup timezone preferences in your user account.

Time Position Orientation Groundspeed Altitude Reporting Facility
EDT Latitude Longitude Course Direction KTS MPH feet Rate Location/Type
Fri 05:58:19 35.7820 140.3620 329° Northwest 164 189 1,400  Level FlightAware ADS-B
Fri 05:58:39 35.7940 140.3530 329° Northwest 170 196 2,100 1,800 Climbing FlightAware ADS-B
Fri 05:58:59 35.8100 140.3430 333° Northwest 189 217 2,600 1,692 Climbing FlightAware ADS-B
Fri 05:59:18 35.8230 140.3330 328° Northwest 193 222 3,200 1,500 Climbing FlightAware ADS-B
Fri 05:59:43 35.8460 140.3170 331° Northwest 229 264 3,700 1,227 Climbing FlightAware ADS-B
Fri 06:00:02 35.8640 140.3030 328° Northwest 254 292 4,100 1,500 Climbing FlightAware ADS-B
Fri 06:00:23 35.8860 140.2880 331° Northwest 274 315 4,700 1,818 Climbing FlightAware ADS-B
Fri 06:00:35 35.8980 140.2820 338° Northwest 276 318 5,100 2,100 Climbing FlightAware ADS-B
Fri 06:00:43 35.9110 140.2800 353° North 271 312 5,400 1,286 Climbing FlightAware ADS-B
Fri 06:01:03 35.9340 140.2900 19° North 267 307 5,700 800 Climbing FlightAware ADS-B
Fri 06:01:13 35.9420 140.3010 48° Northeast 266 306 5,800 429 Climbing FlightAware ADS-B
Fri 06:01:17 35.9450 140.3060 53° Northeast 267 307 5,800  Level FlightAware ADS-B
Fri 06:01:25 35.9480 140.3180 73° East 267 307 5,800 -429 Level FlightAware ADS-B
Fri 06:01:31 35.9490 140.3270 82° East 268 308 5,700 -207 Descending FlightAware ADS-B
Fri 06:01:54 35.9420 140.3590 105° East 269 310 5,700 143 Level FlightAware ADS-B
Fri 06:02:13 35.9300 140.3860 119° Southeast 269 310 5,800 1,231 Climbing FlightAware ADS-B
Fri 06:02:33 35.9150 140.4100 128° Southeast 270 311 6,500 2,609 Climbing FlightAware ADS-B
Fri 06:02:59 35.8950 140.4430 127° Southeast 273 314 7,800 2,609 Climbing FlightAware ADS-B
Fri 06:03:19 35.8800 140.4680 127° Southeast 281 323 8,500 2,400 Climbing FlightAware ADS-B
Fri 06:03:39 35.8640 140.4940 127° Southeast 285 328 9,400 2,143 Climbing FlightAware ADS-B
Fri 06:04:15 35.8340 140.5430 127° Southeast 312 359 10,500 1,500 Climbing FlightAware ADS-B
Fri 06:04:47 35.8050 140.5900 127° Southeast 346 398 11,100 1,324 Climbing FlightAware ADS-B
Fri 06:05:23 35.7680 140.6510 127° Southeast 379 436 12,000 2,000 Climbing FlightAware ADS-B
Fri 06:05:59 35.7320 140.7150 125° Southeast 395 455 13,500 2,520 Climbing FlightAware ADS-B
Fri 06:06:13 35.7210 140.7440 115° Southeast 403 464 14,100 2,400 Climbing FlightAware ADS-B
Fri 06:06:29 35.7150 140.7810 101° East 404 465 14,700 1,179 Climbing FlightAware ADS-B
Fri 06:07:09 35.7200 140.8710 86° East 412 474 15,200 1,579 Climbing FlightAware ADS-B
Fri 06:07:45 35.7310 140.9550 81° East 420 483 16,700 2,261 Climbing FlightAware ADS-B
Fri 06:08:18 35.7420 141.0320 80° East 430 495 17,800 2,057 Climbing FlightAware ADS-B
Fri 06:08:55 35.7680 141.1220 70° East 445 512 19,100 2,029 Climbing FlightAware ADS-B
Fri 06:09:26 35.7920 141.1940 68° East 450 518 20,100 1,739 Climbing FlightAware ADS-B
Fri 06:10:04 35.8230 141.2840 67° East 463 533 21,100 1,521 Climbing FlightAware ADS-B
Fri 06:10:37 35.8510 141.3670 67° East 475 547 21,900 1,059 Climbing FlightAware ADS-B
Fri 06:11:12 35.8820 141.4580 67° East 500 575 22,300 786 Climbing FlightAware ADS-B
Fri 06:12:01 35.9180 141.5660 68° East 520 598 23,000 1,253 Climbing FlightAware ADS-B
Fri 06:12:43 35.9630 141.7010 68° East 527 606 24,200 1,714 Climbing FlightAware ADS-B
Fri 06:13:18 35.9960 141.8020 68° East 532 612 25,200 1,543 Climbing FlightAware ADS-B
Fri 06:13:53 36.0280 141.8960 67° East 538 619 26,000 1,457 Climbing FlightAware ADS-B
Fri 06:14:28 36.0630 142.0030 68° East 542 624 26,900 1,385 Climbing FlightAware ADS-B
Fri 06:14:58 36.0890 142.0820 68° East 548 631 27,500 1,183 Climbing FlightAware ADS-B
Fri 06:15:39 36.1280 142.2020 68° East 555 639 28,300 1,520 Climbing FlightAware ADS-B
Fri 06:16:13 36.1640 142.3100 68° East 553 636 29,400 1,739 Climbing FlightAware ADS-B
Fri 06:16:48 36.1940 142.4050 69° East 547 629 30,300 1,457 Climbing FlightAware ADS-B
Fri 06:17:23 36.2300 142.5140 68° East 548 631 31,100 1,286 Climbing FlightAware ADS-B
Fri 06:17:58 36.2630 142.6180 68° East 552 635 31,800 1,286 Climbing FlightAware ADS-B
Fri 06:18:33 36.2950 142.7170 68° East 552 635 32,600 1,371 Climbing FlightAware ADS-B
Fri 06:19:08 36.3300 142.8240 68° East 553 636 33,400 1,200 Climbing FlightAware ADS-B
Fri 06:19:43 36.3630 142.9280 68° East 556 640 34,000 1,029 Climbing FlightAware ADS-B
Fri 06:20:18 36.3960 143.0330 69° East 562 647 34,600 1,029 Climbing FlightAware ADS-B
Fri 06:20:53 36.4290 143.1360 68° East 559 643 35,200 1,114 Climbing FlightAware ADS-B
Fri 06:21:28 36.4620 143.2390 68° East 559 643 35,900 1,029 Climbing FlightAware ADS-B
Fri 06:22:03 36.4950 143.3430 68° East 560 644 36,400 686 Climbing FlightAware ADS-B
Fri 06:22:38 36.5290 143.4530 69° East 570 656 36,700 228 Climbing FlightAware ADS-B
Fri 06:23:22 36.5630 143.5570 68° East 570 656 36,700 474 Level FlightAware ADS-B
Fri 06:23:54 36.5950 143.6590 69° East 570 656 37,300 529 Climbing FlightAware ADS-B
Fri 06:24:30 36.6250 143.7530 68° East 570 656 37,300  Level FlightAware ADS-B
Fri 06:25:07 36.6560 143.8490 68° East 570 656 37,300 1,159 Level FlightAware ADS-B
Fri 06:25:58 36.7170 144.0570 70° East 574 661 39,000 1,159 Climbing FlightAware ADS-B
Fri 06:26:35 36.7470 144.1540 69° East 574 661 39,000  Level FlightAware ADS-B
Fri 06:27:11 36.7760 144.2490 69° East 574 661 39,000  Level FlightAware ADS-B
Fri 06:27:47 36.8050 144.3440 69° East 574 661 39,000  Level FlightAware ADS-B
Fri 06:28:31 36.8580 144.5210 69° East 570 656 39,000  Level FlightAware ADS-B
Fri 06:29:07 36.8850 144.6160 70° East 570 656 39,000  Level FlightAware ADS-B
Fri 06:29:43 36.9130 144.7110 70° East 570 656 39,000  Level FlightAware ADS-B
Fri 06:30:18 36.9610 144.8640 69° East 39,000  Level FlightAware ADS-B
Fri 06:32:08 37.0650 145.2120 69° East 570 656 39,000  Level FlightAware ADS-B
Fri 06:32:56 37.1000 145.3350 70° East 570 656 39,000  Level FlightAware ADS-B
Fri 06:33:32 37.1280 145.4300 70° East 570 656 39,000  Level FlightAware ADS-B
Fri 06:34:09 37.1560 145.5280 70° East 570 656 39,000  Level FlightAware ADS-B
Fri 06:34:45 37.1840 145.6230 70° East 570 656 39,000  Level FlightAware ADS-B
Fri 06:35:20 37.2610 145.7930 60° Northeast 39,000  Level FlightAware ADS-B
Fri 06:35:55 37.3110 145.8940 58° Northeast 566 651 39,000  Level FlightAware ADS-B
Fri 06:36:45 37.3670 146.0050 58° Northeast 564 649 39,000  Level FlightAware ADS-B
Fri 06:37:21 37.4090 146.0900 58° Northeast 564 649 39,000  Level FlightAware ADS-B
Fri 06:37:55 37.4720 146.2190 58° Northeast 918 1056 39,000 -42 Level FlightAware ADS-B
Fri 06:40:00 37.6274 146.5504 59° Northeast  Level Estimated
Fri 06:41:00 37.7016 146.7099 60° Northeast  Level Estimated
Fri 06:42:00 37.7756 146.8698 60° Northeast  Level Estimated
Fri 06:43:00 37.8494 147.0300 60° Northeast  Level Estimated
Fri 06:44:00 37.9230 147.1905 60° Northeast  Level Estimated
Fri 06:45:00 37.9964 147.3513 60° Northeast  Level Estimated
Fri 06:46:00 38.0696 147.5125 60° Northeast  Level Estimated
Fri 06:47:00 38.1425 147.6740 60° Northeast  Level Estimated
Fri 06:48:00 38.2152 147.8358 60° Northeast  Level Estimated
Fri 06:49:00 38.2877 147.9979 60° Northeast  Level Estimated
Fri 06:50:00 38.3600 148.1603 60° Northeast  Level Estimated
Fri 06:51:00 38.4320 148.3231 60° Northeast  Level Estimated
Fri 06:52:00 38.5039 148.4862 61° Northeast  Level Estimated
Fri 06:53:00 38.5755 148.6496 61° Northeast  Level Estimated
Fri 06:54:00 38.6468 148.8133 61° Northeast  Level Estimated
Fri 06:55:00 38.7179 148.9774 61° Northeast  Level Estimated
Fri 06:56:00 38.7889 149.1418 61° Northeast  Level Estimated
Fri 06:57:00 38.8595 149.3065 61° Northeast  Level Estimated
Fri 06:58:00 38.9300 149.4716 61° Northeast  Level Estimated
Fri 06:59:00 39.0002 149.6370 61° Northeast  Level Estimated
Fri 07:00:00 39.0702 149.8027 61° Northeast  Level Estimated
Fri 07:01:00 39.1399 149.9687 62° Northeast  Level Estimated
Fri 07:02:00 39.2094 150.1351 62° Northeast  Level Estimated
Fri 07:03:00 39.2787 150.3017 62° Northeast  Level Estimated
Fri 07:04:00 39.3477 150.4688 62° Northeast  Level Estimated
Fri 07:05:00 39.4165 150.6361 62° Northeast  Level Estimated
Fri 07:06:00 39.4851 150.8038 62° Northeast  Level Estimated
Fri 07:07:00 39.5534 150.9718 62° Northeast  Level Estimated
Fri 07:08:00 39.6214 151.1402 62° Northeast  Level Estimated
Fri 07:09:00 39.6893 151.3088 62° Northeast  Level Estimated
Fri 07:10:00 39.7568 151.4778 62° Northeast  Level Estimated
Fri 07:11:00 39.8242 151.6472 63° Northeast  Level Estimated
Fri 07:12:00 39.8913 151.8168 63° Northeast  Level Estimated
Fri 07:13:00 39.9581 151.9868 63° Northeast  Level Estimated
Fri 07:14:00 40.0247 152.1572 63° Northeast  Level Estimated
Fri 07:15:00 40.0910 152.3278 63° Northeast  Level Estimated
Fri 07:16:00 40.1571 152.4988 63° Northeast  Level Estimated
Fri 07:17:00 40.2230 152.6702 63° Northeast  Level Estimated
Fri 07:18:00 40.2886 152.8418 63° Northeast  Level Estimated
Fri 07:19:00 40.3539 153.0138 63° Northeast  Level Estimated
Fri 07:20:00 40.4190 153.1861 64° Northeast  Level Estimated
Fri 07:21:00 40.4838 153.3588 64° Northeast  Level Estimated
Fri 07:22:00 40.5483 153.5318 64° Northeast  Level Estimated
Fri 07:23:00 40.6126 153.7051 64° Northeast  Level Estimated
Fri 07:24:00 40.6767 153.8788 64° Northeast  Level Estimated
Fri 07:25:00 40.7405 154.0528 64° Northeast  Level Estimated
Fri 07:26:00 40.8040 154.2271 64° Northeast  Level Estimated
Fri 07:27:00 40.8672 154.4017 64° Northeast  Level Estimated
Fri 07:28:00 40.9302 154.5767 64° Northeast  Level Estimated
Fri 07:29:00 40.9930 154.7521 65° Northeast  Level Estimated
Fri 07:30:00 41.0554 154.9277 65° Northeast  Level Estimated
Fri 07:31:00 41.1176 155.1037 65° Northeast  Level Estimated
Fri 07:32:00 41.1796 155.2800 65° Northeast  Level Estimated
Fri 07:33:00 41.2412 155.4567 65° Northeast  Level Estimated
Fri 07:34:00 41.3026 155.6337 65° Northeast  Level Estimated
Fri 07:35:00 41.3637 155.8110 65° Northeast  Level Estimated
Fri 07:36:00 41.4246 155.9887 65° Northeast  Level Estimated
Fri 07:37:00 41.4851 156.1667 66° East  Level Estimated
Fri 07:38:00 41.5454 156.3450 66° East  Level Estimated
Fri 07:39:00 41.6054 156.5236 66° East  Level Estimated
Fri 07:40:00 41.6652 156.7026 66° East  Level Estimated
Fri 07:41:00 41.7246 156.8819 66° East  Level Estimated
Fri 07:42:00 41.7838 157.0616 66° East  Level Estimated
Fri 07:43:00 41.8427 157.2416 66° East  Level Estimated
Fri 07:44:00 41.9013 157.4219 66° East  Level Estimated
Fri 07:45:00 41.9597 157.6025 66° East  Level Estimated
Fri 07:46:00 42.0177 157.7835 67° East  Level Estimated
Fri 07:47:00 42.0755 157.9648 67° East  Level Estimated
Fri 07:48:00 42.1330 158.1464 67° East  Level Estimated
Fri 07:49:00 42.1902 158.3284 67° East  Level Estimated
Fri 07:50:00 42.2471 158.5107 67° East  Level Estimated
Fri 07:51:00 42.3037 158.6933 67° East  Level Estimated
Fri 07:52:00 42.3601 158.8763 67° East  Level Estimated
Fri 07:53:00 42.4161 159.0595 67° East  Level Estimated
Fri 07:54:00 42.4719 159.2431 68° East  Level Estimated
Fri 07:55:00 42.5273 159.4270 68° East  Level Estimated
Fri 07:56:00 42.5825 159.6113 68° East  Level Estimated
Fri 07:57:00 42.6373 159.7959 68° East  Level Estimated
Fri 07:58:00 42.6919 159.9808 68° East  Level Estimated
Fri 07:59:00 42.7465 160.1670 68° East  Level Estimated
Fri 08:00:00 42.8007 160.3536 68° East  Level Estimated
Fri 08:01:00 42.8547 160.5405 68° East  Level Estimated
Fri 08:02:00 42.9083 160.7277 69° East  Level Estimated
Fri 08:03:00 42.9617 160.9153 69° East  Level Estimated
Fri 08:04:00 43.0147 161.1032 69° East  Level Estimated
Fri 08:05:00 43.0675 161.2914 69° East  Level Estimated
Fri 08:06:00 43.1199 161.4799 69° East  Level Estimated
Fri 08:07:00 43.1720 161.6687 69° East  Level Estimated
Fri 08:08:00 43.2238 161.8579 69° East  Level Estimated
Fri 08:09:00 43.2753 162.0474 69° East  Level Estimated
Fri 08:10:00 43.3265 162.2372 70° East  Level Estimated
Fri 08:11:00 43.3774 162.4274 70° East  Level Estimated
Fri 08:12:00 43.4279 162.6178 70° East  Level Estimated
Fri 08:12:22 46.4167 162.3167 60° Northeast 583 671 35,000  Level Anchorage Center
Fri 08:13:00 43.4781 162.8086 70° East  Level Estimated
Fri 08:14:00 43.5281 162.9996 70° East  Level Estimated
Fri 08:15:00 43.5777 163.1911 70° East  Level Estimated
Fri 08:16:00 43.6269 163.3828 70° East  Level Estimated
Fri 08:17:00 43.6759 163.5748 71° East  Level Estimated
Fri 08:17:55 46.8667 163.5000 61° Northeast 577 664 37,000  Level Anchorage Center
Fri 08:18:00 46.8986 163.5652 61° Northeast 583 671 35,000 -1,846 Descending FlightAware Transoceanic
Fri 08:19:00 46.9776 163.7755 61° Northeast 583 671 35,000  Level FlightAware Transoceanic
Fri 08:20:00 47.0562 163.9864 61° Northeast 583 671 35,000  Level FlightAware Transoceanic
Fri 08:21:00 47.1344 164.1979 62° Northeast 583 671 35,000  Level FlightAware Transoceanic
Fri 08:22:00 47.2122 164.4100 62° Northeast 583 671 35,000  Level FlightAware Transoceanic
Fri 08:23:00 47.2897 164.6228 62° Northeast 583 671 35,000 1,000 Level FlightAware Transoceanic
Fri 08:24:00 47.3245 164.7343 62° Northeast 577 664 37,000 1,000 Climbing FlightAware Transoceanic
Fri 08:25:00 47.3995 164.9421 62° Northeast 577 664 37,000  Level FlightAware Transoceanic
Fri 08:26:00 47.4742 165.1505 62° Northeast 577 664 37,000  Level FlightAware Transoceanic
Fri 08:27:00 47.5484 165.3594 62° Northeast 577 664 37,000  Level FlightAware Transoceanic
Fri 08:27:31 47.6000 165.5000 62° Northeast 571 657 37,000  Level Anchorage Center
Fri 08:28:00 47.6223 165.5690 62° Northeast 577 664 37,000  Level FlightAware Transoceanic
Fri 08:29:00 47.6958 165.7791 63° Northeast 577 664 37,000  Level FlightAware Transoceanic
Fri 08:30:00 47.7689 165.9899 63° Northeast 577 664 37,000  Level FlightAware Transoceanic
Fri 08:31:00 47.8416 166.2012 63° Northeast 577 664 37,000  Level FlightAware Transoceanic
Fri 08:32:00 47.9140 166.4131 63° Northeast 577 664 37,000  Level FlightAware Transoceanic
Fri 08:33:00 47.9859 166.6257 63° Northeast 577 664 37,000  Level FlightAware Transoceanic
Fri 08:34:00 48.0854 166.9194 64° Northeast 571 657 37,000  Level FlightAware Transoceanic
Fri 08:35:00 48.1534 167.1243 64° Northeast 571 657 37,000  Level FlightAware Transoceanic
Fri 08:36:00 48.2209 167.3298 64° Northeast 571 657 37,000  Level FlightAware Transoceanic
Fri 08:37:00 48.2881 167.5358 64° Northeast 571 657 37,000  Level FlightAware Transoceanic
Fri 08:37:07 48.2833 167.5167 64° Northeast 554 638 37,000  Level Anchorage Center
Fri 08:38:00 48.3549 167.7424 64° Northeast 571 657 37,000  Level FlightAware Transoceanic
Fri 08:39:00 48.4213 167.9495 64° Northeast 571 657 37,000  Level FlightAware Transoceanic
Fri 08:40:00 48.4874 168.1572 64° Northeast 571 657 37,000  Level FlightAware Transoceanic
Fri 08:41:00 48.5531 168.3653 65° Northeast 571 657 37,000  Level FlightAware Transoceanic
Fri 08:42:00 48.6184 168.5741 65° Northeast 571 657 37,000  Level FlightAware Transoceanic
Fri 08:43:00 48.6833 168.7833 66° East 554 638 37,000  Level FlightAware Transoceanic
Fri 08:43:31 48.6833 168.7833 66° East 554 638 37,000  Level Anchorage Center
Fri 08:44:00 48.7434 168.9863 66° East 554 638 37,000  Level FlightAware Transoceanic
Fri 08:45:00 48.8032 169.1898 66° East 554 638 37,000  Level FlightAware Transoceanic
Fri 08:46:00 48.8625 169.3937 66° East 554 638 37,000 1,049 Level FlightAware Transoceanic
Fri 08:46:43 48.8833 169.5000 66° East 548 631 38,800  Climbing Anchorage Center
Fri 08:47:00 48.9216 169.5981 66° East 554 638 37,000 -1,403 Descending FlightAware Transoceanic
Fri 08:48:00 48.9802 169.8031 67° East 554 638 37,000  Level FlightAware Transoceanic
Fri 08:49:00 49.0491 170.0458 67° East 554 638 37,000  Level FlightAware Transoceanic
Fri 08:50:00 49.1087 170.2580 67° East 554 638 37,000  Level FlightAware Transoceanic
Fri 08:51:00 49.1679 170.4707 67° East 554 638 37,000  Level FlightAware Transoceanic
Fri 08:52:00 49.2267 170.6840 67° East 554 638 37,000 900 Level FlightAware Transoceanic
Fri 08:53:00 49.2503 170.7986 67° East 548 631 38,800 1,395 Climbing FlightAware Transoceanic
Fri 08:53:26 49.2667 170.9500 68° East 560 644 39,000  Climbing Anchorage Center
Fri 08:54:00 49.3100 171.0168 67° East 548 631 38,800  Descending FlightAware Transoceanic
Fri 08:54:26 49.3167 171.1500 69° East 580 667 39,000  Climbing Anchorage Center
Fri 08:55:00 49.3694 171.2357 67° East 548 631 38,800  Descending FlightAware Transoceanic
Fri 08:55:26 49.3833 171.3667 65° Northeast 540 621 39,000  Climbing Anchorage Center
Fri 08:56:00 49.4283 171.4550 68° East 548 631 38,800  Descending FlightAware Transoceanic
Fri 08:56:26 49.4333 171.5500 67° East 540 621 39,000  Climbing Anchorage Center
Fri 08:57:00 49.4868 171.6749 68° East 548 631 38,800  Descending FlightAware Transoceanic
Fri 08:57:26 49.5000 171.8000 68° East 560 644 39,000  Climbing Anchorage Center
Fri 08:58:00 49.5448 171.8953 68° East 548 631 38,800  Descending FlightAware Transoceanic
Fri 08:58:26 49.5500 172.0000 69° East 560 644 39,000 140 Climbing Anchorage Center
Fri 08:59:26 49.6000 172.2333 72° East 540 621 39,000  Level Anchorage Center
Fri 09:00:27 49.6500 172.4000 65° Northeast 540 621 39,000  Level Anchorage Center
Fri 09:01:27 49.7167 172.6333 66° East 540 621 39,000  Level Anchorage Center
Fri 09:02:27 49.7667 172.8833 73° East 550 633 39,000  Level Anchorage Center
Fri 09:03:27 49.8167 173.0667 67° East 540 621 39,000  Level Anchorage Center
Fri 09:04:27 49.8833 173.3167 67° East 550 633 39,000  Level Anchorage Center
Fri 09:05:27 49.9333 173.5000 67° East 540 621 39,000  Level Anchorage Center
Fri 09:06:27 49.9833 173.7333 71° East 540 621 39,000  Level Anchorage Center
Fri 09:07:27 50.0333 173.9333 69° East 560 644 39,000  Level Anchorage Center
Fri 09:08:27 50.0833 174.1667 71° East 540 621 39,000  Level Anchorage Center
Fri 09:09:27 50.1333 174.4000 71° East 530 610 39,000  Level Anchorage Center
Fri 09:10:27 50.1833 174.5833 67° East 540 621 39,000  Level Anchorage Center
Fri 09:11:27 50.2333 174.8333 73° East 550 633 39,000  Level Anchorage Center
Fri 09:12:27 50.2833 175.0167 67° East 540 621 39,000  Level Anchorage Center
Fri 09:13:27 50.3333 175.2667 73° East 540 621 39,000  Level Anchorage Center
Fri 09:14:27 50.3833 175.4500 67° East 520 598 39,000  Level Anchorage Center
Fri 09:15:28 50.4333 175.6833 71° East 540 621 39,000  Level Anchorage Center
Fri 09:16:28 50.4667 175.8833 75° East 530 610 39,000  Level Anchorage Center
Fri 09:17:28 50.5000 176.1333 78° East 560 644 39,000  Level Anchorage Center
Fri 09:18:27 50.5333 176.3833 78° East 550 633 39,000  Level Anchorage Center
Fri 09:19:28 50.5500 176.5833 82° East 550 633 39,000  Level Anchorage Center
Fri 09:20:29 50.5833 176.8333 78° East 530 610 39,000  Level Anchorage Center
Fri 09:21:28 50.5833 177.0333 90° East 530 610 39,000  Level Anchorage Center
Fri 09:22:28 50.6167 177.3000 79° East 550 633 39,000  Level Anchorage Center
Fri 09:23:28 50.6333 177.5000 82° East 550 633 39,000  Level Anchorage Center
Fri 09:24:28 50.6500 177.7500 84° East 530 610 39,000  Level Anchorage Center
Fri 09:25:28 50.6667 178.0000 84° East 540 621 39,000  Level Anchorage Center
Fri 09:26:28 50.6833 178.2000 82° East 520 598 39,000  Level Anchorage Center
Fri 09:27:28 50.7000 178.4667 84° East 530 610 39,000  Level Anchorage Center
Fri 09:28:28 50.7167 178.6667 82° East 510 587 39,000  Level Anchorage Center
Fri 09:29:28 50.7333 178.9167 84° East 540 621 39,000  Level Anchorage Center
Fri 09:30:28 50.7500 179.1167 82° East 530 610 39,000  Level Anchorage Center
Fri 09:31:29 50.7667 179.3167 82° East 530 610 39,000  Level Anchorage Center
Fri 09:32:29 50.7833 179.5667 84° East 530 610 39,000  Level Anchorage Center
Fri 09:33:29 50.8000 179.8167 84° East 530 610 39,000  Level Anchorage Center
Fri 09:34:29 50.8000 -179.9667 90° East 530 610 39,000  Level Anchorage Center
Fri 09:36:00 50.8213 -179.6195 84° East  Level FlightAware Approximate
Fri 09:43:00 50.9061 -178.0134 85° East  Level FlightAware Approximate
Fri 09:44:00 50.9164 -177.7835 86° East  Level FlightAware Approximate
Fri 09:44:15 50.9500 -177.6667 86° East 515 593 39,000  Level Anchorage Center
Fri 09:45:00 50.9262 -177.5535 86° East  Level FlightAware Approximate
Fri 09:46:00 50.9356 -177.3234 86° East  Level FlightAware Approximate
Fri 09:47:00 50.9446 -177.0932 86° East  Level FlightAware Approximate
Fri 09:48:00 50.9531 -176.8629 87° East  Level FlightAware Approximate
Fri 09:49:00 50.9611 -176.6326 87° East  Level FlightAware Approximate
Fri 09:50:00 50.9953 -176.3162 87° East 515 593 39,000  Level FlightAware Transoceanic
Fri 09:51:00 51.0013 -176.0909 88° East 515 593 39,000  Level FlightAware Transoceanic
Fri 09:52:00 51.0069 -175.8656 88° East 515 593 39,000  Level FlightAware Transoceanic
Fri 09:53:00 51.0121 -175.6401 88° East 515 593 39,000  Level FlightAware Transoceanic
Fri 09:53:53 51.0167 -175.4500 88° East 523 602 39,000  Level Anchorage Center
Fri 09:54:00 51.0168 -175.4147 88° East 515 593 39,000  Level FlightAware Transoceanic
Fri 09:55:00 51.0211 -175.1891 88° East 515 593 39,000  Level FlightAware Transoceanic
Fri 09:56:00 51.0250 -174.9636 89° East 515 593 39,000  Level FlightAware Transoceanic
Fri 09:57:00 51.0284 -174.7380 89° East 515 593 39,000  Level FlightAware Transoceanic
Fri 09:58:00 51.0314 -174.5124 89° East 515 593 39,000  Level FlightAware Transoceanic
Fri 09:59:00 51.0339 -174.2867 89° East 515 593 39,000  Level FlightAware Transoceanic
Fri 10:00:00 51.0368 -174.0283 89° East 523 602 39,000  Level FlightAware Transoceanic
Fri 10:01:00 51.0384 -173.7913 89° East 523 602 39,000  Level FlightAware Transoceanic
Fri 10:02:00 51.0396 -173.5542 90° East 523 602 39,000  Level FlightAware Transoceanic
Fri 10:03:00 51.0404 -173.3172 90° East 523 602 39,000 1,379 Level FlightAware Transoceanic
Fri 10:03:27 51.0333 -173.2167 90° East 506 582 41,000  Climbing Anchorage Center
Fri 10:04:00 51.0406 -173.0801 90° East 523 602 39,000 -1,290 Descending FlightAware Transoceanic
Fri 10:05:00 51.0403 -172.8430 90° East 523 602 39,000  Level FlightAware Transoceanic
Fri 10:06:00 51.0396 -172.6060 90° East 523 602 39,000  Level FlightAware Transoceanic
Fri 10:07:00 51.0384 -172.3689 91° East 523 602 39,000  Level FlightAware Transoceanic
Fri 10:08:00 51.0367 -172.1319 91° East 523 602 39,000 1,000 Level FlightAware Transoceanic
Fri 10:09:00 51.0306 -171.9295 91° East 506 582 41,000 1,000 Climbing FlightAware Transoceanic
Fri 10:10:00 51.0288 -171.7150 91° East 506 582 41,000  Level FlightAware Transoceanic
Fri 10:11:00 51.0266 -171.5005 91° East 506 582 41,000  Level FlightAware Transoceanic
Fri 10:12:00 51.0239 -171.2861 91° East 506 582 41,000  Level FlightAware Transoceanic
Fri 10:13:00 51.0209 -171.0716 91° East 506 582 41,000  Level FlightAware Transoceanic
Fri 10:14:00 51.0175 -170.8572 92° East 506 582 41,000  Level FlightAware Transoceanic
Fri 10:15:00 51.0137 -170.6429 92° East 506 582 41,000  Level FlightAware Transoceanic
Fri 10:16:00 51.0095 -170.4285 92° East 506 582 41,000  Level FlightAware Transoceanic
Fri 10:17:00 51.0050 -170.2142 92° East 506 582 41,000  Level FlightAware Transoceanic
Fri 10:18:00 51.0000 -170.0000 103° East 506 582 41,000  Level FlightAware Transoceanic
Fri 10:18:44 51.0000 -170.0000 103° East 531 611 41,000  Level Oakland Oceanic (ODAPS)
Fri 10:19:00 50.9659 -169.7742 104° East 506 582 41,000  Level FlightAware Transoceanic
Fri 10:20:00 50.9313 -169.5487 104° East 506 582 41,000  Level FlightAware Transoceanic
Fri 10:21:00 50.8964 -169.3235 104° East 506 582 41,000  Level FlightAware Transoceanic
Fri 10:22:00 50.8609 -169.0987 104° East 506 582 41,000  Level FlightAware Transoceanic
Fri 10:23:00 50.8251 -168.8742 104° East 506 582 41,000  Level FlightAware Transoceanic
Fri 10:24:00 50.7888 -168.6501 104° East 531 611 41,000  Level FlightAware Transoceanic
Fri 10:24:13 50.7833 -168.6167 104° East 532 612 41,000  Level Oakland Oceanic (ODAPS)
Fri 10:25:00 50.7521 -168.4263 105° East 531 611 41,000  Level FlightAware Transoceanic
Fri 10:26:00 50.7150 -168.2029 105° East 531 611 41,000  Level FlightAware Transoceanic
Fri 10:27:00 50.6774 -167.9798 105° East 531 611 41,000  Level FlightAware Transoceanic
Fri 10:28:00 50.6394 -167.7571 105° East 531 611 41,000  Level FlightAware Transoceanic
Fri 10:29:00 50.6010 -167.5347 105° East 531 611 41,000  Level FlightAware Transoceanic
Fri 10:30:00 50.5572 -167.2846 106° East 532 612 41,000  Level FlightAware Transoceanic
Fri 10:31:00 50.5180 -167.0639 106° East 532 612 41,000  Level FlightAware Transoceanic
Fri 10:32:00 50.4785 -166.8435 106° East 532 612 41,000  Level FlightAware Transoceanic
Fri 10:33:00 50.4385 -166.6235 106° East 532 612 41,000  Level FlightAware Transoceanic
Fri 10:34:00 50.3981 -166.4038 106° East 532 612 41,000  Level FlightAware Transoceanic
Fri 10:35:00 50.3572 -166.1846 106° East 532 612 41,000  Level FlightAware Transoceanic
Fri 10:36:00 50.3160 -165.9657 107° East 532 612 41,000  Level FlightAware Transoceanic
Fri 10:37:00 50.2744 -165.7472 107° East 532 612 41,000  Level FlightAware Transoceanic
Fri 10:38:00 50.2323 -165.5291 107° East 532 612 41,000  Level FlightAware Transoceanic
Fri 10:38:05 50.2333 -165.5333 107° East 533 613 41,000  Level Oakland Oceanic (ODAPS)
Fri 10:39:00 50.1899 -165.3114 107° East 532 612 41,000  Level FlightAware Transoceanic
Fri 10:40:00 50.1470 -165.0940 107° East 532 612 41,000  Level FlightAware Transoceanic
Fri 10:41:00 50.1037 -164.8771 107° East 532 612 41,000  Level FlightAware Transoceanic
Fri 10:42:00 50.0601 -164.6605 108° East 532 612 41,000  Level FlightAware Transoceanic
Fri 10:43:00 50.0160 -164.4443 108° East 532 612 41,000  Level FlightAware Transoceanic
Fri 10:44:00 49.9723 -164.2318 108° East 533 613 41,000  Level FlightAware Transoceanic
Fri 10:45:00 49.9274 -164.0163 108° East 533 613 41,000  Level FlightAware Transoceanic
Fri 10:46:00 49.8821 -163.8011 108° East 533 613 41,000  Level FlightAware Transoceanic
Fri 10:47:00 49.8364 -163.5864 108° East 533 613 41,000  Level FlightAware Transoceanic
Fri 10:48:00 49.7903 -163.3721 109° East 533 613 41,000  Level FlightAware Transoceanic
Fri 10:49:00 49.7438 -163.1582 109° East 533 613 41,000  Level FlightAware Transoceanic
Fri 10:50:00 49.6969 -162.9447 109° East 533 613 41,000  Level FlightAware Transoceanic
Fri 10:51:00 49.6496 -162.7316 109° East 533 613 41,000  Level FlightAware Transoceanic
Fri 10:51:57 49.6000 -162.5333 109° East 529 609 41,000  Level Oakland Oceanic (ODAPS)
Fri 10:52:00 49.6020 -162.5190 109° East 533 613 41,000  Level FlightAware Transoceanic
Fri 10:53:00 49.5539 -162.3067 109° East 533 613 41,000  Level FlightAware Transoceanic
Fri 10:54:00 49.5055 -162.0949 109° East 533 613 41,000  Level FlightAware Transoceanic
Fri 10:55:00 49.4566 -161.8835 110° East 533 613 41,000  Level FlightAware Transoceanic
Fri 10:56:00 49.4074 -161.6725 110° East 533 613 41,000  Level FlightAware Transoceanic
Fri 10:57:00 49.3578 -161.4619 110° East 533 613 41,000  Level FlightAware Transoceanic
Fri 10:58:00 49.3069 -161.2590 110° East 529 609 41,000  Level FlightAware Transoceanic
Fri 10:59:00 49.2567 -161.0480 110° East 529 609 41,000  Level FlightAware Transoceanic
Fri 11:00:00 49.2061 -160.8376 110° East 529 609 41,000  Level FlightAware Transoceanic
Fri 11:01:00 49.1552 -160.6275 110° East 529 609 41,000  Level FlightAware Transoceanic
Fri 11:02:00 49.1038 -160.4179 111° Southeast 529 609 41,000  Level FlightAware Transoceanic
Fri 11:03:00 49.0521 -160.2087 111° Southeast 529 609 41,000  Level FlightAware Transoceanic
Fri 11:03:57 49.0000 -160.0000 95° East 525 604 41,000  Level Oakland Oceanic (ODAPS)
Fri 11:04:00 49.0000 -160.0000 95° East 529 609 41,000  Level FlightAware Transoceanic
Fri 11:05:00 48.9876 -159.7789 95° East 529 609 41,000  Level FlightAware Transoceanic
Fri 11:05:49 48.9833 -159.5833 95° East 527 606 41,000  Level Oakland Oceanic (ODAPS)
Fri 11:06:00 48.9747 -159.5580 95° East 529 609 41,000  Level FlightAware Transoceanic
Fri 11:07:00 48.9615 -159.3372 95° East 529 609 41,000  Level FlightAware Transoceanic
Fri 11:08:00 48.9478 -159.1165 95° East 529 609 41,000  Level FlightAware Transoceanic
Fri 11:09:00 48.9337 -158.8959 96° East 529 609 41,000  Level FlightAware Transoceanic
Fri 11:10:00 48.9192 -158.6755 96° East 525 604 41,000  Level FlightAware Transoceanic
Fri 11:11:00 48.9042 -158.4552 96° East 525 604 41,000  Level FlightAware Transoceanic
Fri 11:12:00 48.8965 -158.2566 96° East 527 606 41,000  Level FlightAware Transoceanic
Fri 11:13:00 48.8806 -158.0359 96° East 527 606 41,000  Level FlightAware Transoceanic
Fri 11:14:00 48.8642 -157.8154 97° East 527 606 41,000  Level FlightAware Transoceanic
Fri 11:15:00 48.8474 -157.5950 97° East 527 606 41,000  Level FlightAware Transoceanic
Fri 11:16:00 48.8302 -157.3748 97° East 527 606 41,000  Level FlightAware Transoceanic
Fri 11:17:00 48.8126 -157.1548 97° East 527 606 41,000  Level FlightAware Transoceanic
Fri 11:18:00 48.7945 -156.9348 97° East 527 606 41,000  Level FlightAware Transoceanic
Fri 11:19:00 48.7761 -156.7151 97° East 527 606 41,000  Level FlightAware Transoceanic
Fri 11:19:50 48.7500 -156.5667 97° East 534 615 41,000  Level Oakland Oceanic (ODAPS)
Fri 11:20:00 48.7572 -156.4955 98° East 527 606 41,000  Level FlightAware Transoceanic
Fri 11:21:00 48.7379 -156.2761 98° East 527 606 41,000  Level FlightAware Transoceanic
Fri 11:22:00 48.7182 -156.0568 98° East 527 606 41,000  Level FlightAware Transoceanic
Fri 11:23:00 48.6981 -155.8378 98° East 527 606 41,000  Level FlightAware Transoceanic
Fri 11:24:00 48.6775 -155.6189 98° East 527 606 41,000  Level FlightAware Transoceanic
Fri 11:25:00 48.6566 -155.4001 98° East 527 606 41,000  Level FlightAware Transoceanic
Fri 11:26:00 48.6257 -155.1929 98° East 534 615 41,000  Level FlightAware Transoceanic
Fri 11:27:00 48.6034 -154.9646 98° East 534 615 41,000  Level FlightAware Transoceanic
Fri 11:28:00 48.5806 -154.7365 99° East 534 615 41,000  Level FlightAware Transoceanic
Fri 11:29:00 48.5574 -154.5086 99° East 534 615 41,000  Level FlightAware Transoceanic
Fri 11:30:00 48.5337 -154.2809 99° East 534 615 41,000  Level FlightAware Transoceanic
Fri 11:31:00 48.5096 -154.0535 99° East 534 615 41,000  Level FlightAware Transoceanic
Fri 11:32:00 48.4851 -153.8262 99° East 534 615 41,000  Level FlightAware Transoceanic
Fri 11:33:00 48.4601 -153.5992 100° East 534 615 41,000  Level FlightAware Transoceanic
Fri 11:33:33 48.4500 -153.5333 100° East 533 613 41,000  Level Oakland Oceanic (ODAPS)
Fri 11:34:00 48.4346 -153.3724 100° East 534 615 41,000  Level FlightAware Transoceanic
Fri 11:35:00 48.4087 -153.1459 100° East 534 615 41,000  Level FlightAware Transoceanic
Fri 11:36:00 48.3824 -152.9196 100° East 534 615 41,000  Level FlightAware Transoceanic
Fri 11:37:00 48.3556 -152.6935 100° East 534 615 41,000  Level FlightAware Transoceanic
Fri 11:38:00 48.3284 -152.4676 100° East 534 615 41,000  Level FlightAware Transoceanic
Fri 11:39:00 48.3036 -152.2793 100° East 533 613 41,000  Level FlightAware Transoceanic
Fri 11:40:00 48.2778 -152.0710 101° East 533 613 41,000  Level FlightAware Transoceanic
Fri 11:41:00 48.2517 -151.8629 101° East 533 613 41,000  Level FlightAware Transoceanic
Fri 11:42:00 48.2253 -151.6550 101° East 533 613 41,000  Level FlightAware Transoceanic
Fri 11:43:00 48.1984 -151.4473 101° East 533 613 41,000  Level FlightAware Transoceanic
Fri 11:44:00 48.1712 -151.2399 101° East 533 613 41,000  Level FlightAware Transoceanic
Fri 11:45:00 48.1436 -151.0327 101° East 533 613 41,000  Level FlightAware Transoceanic
Fri 11:46:00 48.1156 -150.8257 102° East 533 613 41,000  Level FlightAware Transoceanic
Fri 11:47:00 48.0872 -150.6189 102° East 533 613 41,000  Level FlightAware Transoceanic
Fri 11:47:25 48.0667 -150.4833 101° East 544 626 41,000  Level Oakland Oceanic (ODAPS)
Fri 11:48:00 48.0585 -150.4124 102° East 533 613 41,000  Level FlightAware Transoceanic
Fri 11:49:00 48.0294 -150.2061 102° East 533 613 41,000  Level FlightAware Transoceanic
Fri 11:49:38 48.0000 -150.0000 103° East 548 631 41,000  Level Oakland Oceanic (ODAPS)
Fri 11:50:00 48.0000 -150.0000 103° East 533 613 41,000  Level FlightAware Transoceanic
Fri 11:51:00 47.9667 -149.7798 103° East 533 613 41,000  Level FlightAware Transoceanic
Fri 11:52:00 47.9330 -149.5599 103° East 533 613 41,000  Level FlightAware Transoceanic
Fri 11:53:00 47.8673 -149.1393 103° East 544 626 41,000  Level FlightAware Transoceanic
Fri 11:54:00 47.8331 -148.9248 103° East 544 626 41,000  Level FlightAware Transoceanic
Fri 11:55:00 47.7940 -148.6832 104° East 548 631 41,000  Level FlightAware Transoceanic
Fri 11:56:00 47.7583 -148.4648 104° East 548 631 41,000  Level FlightAware Transoceanic
Fri 11:57:00 47.7221 -148.2467 104° East 548 631 41,000  Level FlightAware Transoceanic
Fri 11:58:00 47.6855 -148.0288 104° East 548 631 41,000  Level FlightAware Transoceanic
Fri 11:59:00 47.6484 -147.8113 104° East 548 631 41,000  Level FlightAware Transoceanic
Fri 12:00:00 47.6110 -147.5941 104° East 548 631 41,000  Level FlightAware Transoceanic
Fri 12:01:00 47.5732 -147.3772 105° East 548 631 41,000  Level FlightAware Transoceanic
Fri 12:01:17 47.5833 -147.4667 104° East 551 634 41,000  Level Oakland Oceanic (ODAPS)
Fri 12:02:00 47.5349 -147.1606 105° East 548 631 41,000  Level FlightAware Transoceanic
Fri 12:03:00 47.4962 -146.9444 105° East 548 631 41,000  Level FlightAware Transoceanic
Fri 12:04:00 47.4572 -146.7284 105° East 548 631 41,000  Level FlightAware Transoceanic
Fri 12:05:00 47.4177 -146.5128 105° East 548 631 41,000  Level FlightAware Transoceanic
Fri 12:06:00 47.3778 -146.2975 105° East 548 631 41,000  Level FlightAware Transoceanic
Fri 12:07:00 47.3468 -146.1561 105° East 551 634 41,000  Level FlightAware Transoceanic
Fri 12:08:00 47.3060 -145.9388 106° East 551 634 41,000  Level FlightAware Transoceanic
Fri 12:09:00 47.2647 -145.7219 106° East 551 634 41,000  Level FlightAware Transoceanic
Fri 12:10:00 47.2230 -145.5053 106° East 551 634 41,000  Level FlightAware Transoceanic
Fri 12:11:00 47.1809 -145.2891 106° East 551 634 41,000  Level FlightAware Transoceanic
Fri 12:12:00 47.1384 -145.0732 106° East 551 634 41,000  Level FlightAware Transoceanic
Fri 12:13:00 47.0955 -144.8576 106° East 551 634 41,000  Level FlightAware Transoceanic
Fri 12:14:00 47.0522 -144.6424 107° East 551 634 41,000  Level FlightAware Transoceanic
Fri 12:15:00 47.0085 -144.4276 107° East 551 634 41,000  Level FlightAware Transoceanic
Fri 12:15:11 47.0167 -144.4333 107° East 551 634 41,000  Level Oakland Oceanic (ODAPS)
Fri 12:16:00 46.9644 -144.2130 107° East 551 634 41,000  Level FlightAware Transoceanic
Fri 12:17:00 46.9199 -143.9989 107° East 551 634 41,000  Level FlightAware Transoceanic
Fri 12:18:00 46.8750 -143.7851 107° East 551 634 41,000  Level FlightAware Transoceanic
Fri 12:19:00 46.8297 -143.5717 107° East 551 634 41,000  Level FlightAware Transoceanic
Fri 12:20:00 46.7840 -143.3586 107° East 551 634 41,000  Level FlightAware Transoceanic
Fri 12:21:00 46.7438 -143.1499 108° East 551 634 41,000  Level FlightAware Transoceanic
Fri 12:22:00 46.6969 -142.9372 108° East 551 634 41,000  Level FlightAware Transoceanic
Fri 12:23:00 46.6496 -142.7249 108° East 551 634 41,000  Level FlightAware Transoceanic
Fri 12:24:00 46.6020 -142.5131 108° East 551 634 41,000  Level FlightAware Transoceanic
Fri 12:25:00 46.5539 -142.3015 108° East 551 634 41,000  Level FlightAware Transoceanic
Fri 12:26:00 46.5055 -142.0904 109° East 551 634 41,000  Level FlightAware Transoceanic
Fri 12:27:00 46.4566 -141.8796 109° East 551 634 41,000  Level FlightAware Transoceanic
Fri 12:28:00 46.4074 -141.6693 109° East 551 634 41,000  Level FlightAware Transoceanic
Fri 12:29:00 46.3578 -141.4592 109° East 551 634 41,000  Level FlightAware Transoceanic
Fri 12:29:01 46.3833 -141.5833 109° East 540 621 41,000  Level Oakland Oceanic (ODAPS)
Fri 12:30:00 46.3079 -141.2496 109° East 551 634 41,000  Level FlightAware Transoceanic
Fri 12:31:00 46.2575 -141.0404 109° East 551 634 41,000  Level FlightAware Transoceanic
Fri 12:32:00 46.2068 -140.8315 109° East 551 634 41,000  Level FlightAware Transoceanic
Fri 12:33:00 46.1556 -140.6231 110° East 551 634 41,000  Level FlightAware Transoceanic
Fri 12:34:00 46.1041 -140.4150 110° East 551 634 41,000  Level FlightAware Transoceanic
Fri 12:35:00 46.0979 -140.3938 110° East 540 621 41,000  Level FlightAware Transoceanic
Fri 12:36:00 46.0491 -140.1967 110° East 540 621 41,000  Level FlightAware Transoceanic
Fri 12:36:54 46.0000 -140.0000 116° Southeast 532 612 41,000  Level Oakland Oceanic (ODAPS)
Fri 12:37:00 46.0000 -140.0000 116° Southeast 540 621 41,000  Level FlightAware Transoceanic
Fri 12:38:00 45.9366 -139.8095 116° Southeast 540 621 41,000  Level FlightAware Transoceanic
Fri 12:39:00 45.8728 -139.6194 116° Southeast 540 621 41,000  Level FlightAware Transoceanic
Fri 12:40:00 45.8087 -139.4298 116° Southeast 540 621 41,000  Level FlightAware Transoceanic
Fri 12:41:00 45.7444 -139.2406 116° Southeast 540 621 41,000  Level FlightAware Transoceanic
Fri 12:42:00 45.6797 -139.0518 116° Southeast 540 621 41,000  Level FlightAware Transoceanic
Fri 12:42:53 45.6167 -138.8500 116° Southeast 525 604 41,000  Level Oakland Oceanic (ODAPS)
Fri 12:43:00 45.6076 -138.8430 116° Southeast 532 612 41,000  Level FlightAware Transoceanic
Fri 12:44:00 45.5410 -138.6518 116° Southeast 532 612 41,000  Level FlightAware Transoceanic
Fri 12:45:00 45.4742 -138.4610 117° Southeast 532 612 41,000  Level FlightAware Transoceanic
Fri 12:46:00 45.4070 -138.2706 117° Southeast 532 612 41,000  Level FlightAware Transoceanic
Fri 12:47:00 45.3395 -138.0807 117° Southeast 532 612 41,000  Level FlightAware Transoceanic
Fri 12:48:00 45.2717 -137.8913 117° Southeast 532 612 41,000  Level FlightAware Transoceanic
Fri 12:49:00 45.2199 -137.7309 117° Southeast 525 604 41,000  Level FlightAware Transoceanic
Fri 12:50:00 45.1527 -137.5460 117° Southeast 525 604 41,000  Level FlightAware Transoceanic
Fri 12:51:00 45.0852 -137.3614 117° Southeast 525 604 41,000  Level FlightAware Transoceanic
Fri 12:52:00 45.0174 -137.1773 118° Southeast 525 604 41,000  Level FlightAware Transoceanic
Fri 12:53:00 44.9493 -136.9936 118° Southeast 525 604 41,000  Level FlightAware Transoceanic
Fri 12:54:00 44.8810 -136.8104 118° Southeast 525 604 41,000  Level FlightAware Transoceanic
Fri 12:55:00 44.8123 -136.6276 118° Southeast 525 604 41,000  Level FlightAware Transoceanic
Fri 12:56:00 44.7434 -136.4452 118° Southeast 525 604 41,000  Level FlightAware Transoceanic
Fri 12:56:45 44.6833 -136.3167 118° Southeast 524 603 41,000  Level Oakland Oceanic (ODAPS)
Fri 12:57:00 44.6741 -136.2633 118° Southeast 525 604 41,000  Level FlightAware Transoceanic
Fri 12:58:00 44.6046 -136.0818 118° Southeast 525 604 41,000  Level FlightAware Transoceanic
Fri 12:59:00 44.5348 -135.9008 118° Southeast 525 604 41,000  Level FlightAware Transoceanic
Fri 13:00:00 44.4646 -135.7201 119° Southeast 525 604 41,000  Level FlightAware Transoceanic
Fri 13:01:00 44.3943 -135.5399 119° Southeast 525 604 41,000  Level FlightAware Transoceanic
Fri 13:02:00 44.3236 -135.3602 119° Southeast 525 604 41,000  Level FlightAware Transoceanic
Fri 13:03:00 44.2607 -135.2249 119° Southeast 524 603 41,000  Level FlightAware Transoceanic
Fri 13:04:00 44.1893 -135.0444 119° Southeast 524 603 41,000  Level FlightAware Transoceanic
Fri 13:05:00 44.1176 -134.8644 119° Southeast 524 603 41,000  Level FlightAware Transoceanic
Fri 13:06:00 44.0456 -134.6849 119° Southeast 524 603 41,000  Level FlightAware Transoceanic
Fri 13:07:00 43.9733 -134.5058 119° Southeast 524 603 41,000  Level FlightAware Transoceanic
Fri 13:08:00 43.9007 -134.3271 119° Southeast 524 603 41,000  Level FlightAware Transoceanic
Fri 13:09:00 43.8279 -134.1488 120° Southeast 524 603 41,000  Level FlightAware Transoceanic
Fri 13:10:00 43.7548 -133.9710 120° Southeast 524 603 41,000  Level FlightAware Transoceanic
Fri 13:10:37 43.7167 -133.8833 120° Southeast 523 602 41,000  Level Oakland Oceanic (ODAPS)
Fri 13:11:00 43.6814 -133.7936 120° Southeast 524 603 41,000  Level FlightAware Transoceanic
Fri 13:12:00 43.6077 -133.6167 120° Southeast 524 603 41,000  Level FlightAware Transoceanic
Fri 13:13:00 43.5338 -133.4402 120° Southeast 524 603 41,000  Level FlightAware Transoceanic
Fri 13:14:00 43.4596 -133.2641 120° Southeast 524 603 41,000  Level FlightAware Transoceanic
Fri 13:15:00 43.3851 -133.0885 120° Southeast 524 603 41,000  Level FlightAware Transoceanic
Fri 13:16:00 43.2816 -132.8494 120° Southeast 523 602 41,000  Level FlightAware Transoceanic
Fri 13:17:00 43.2082 -132.6785 121° Southeast 523 602 41,000  Level FlightAware Transoceanic
Fri 13:18:00 43.1345 -132.5081 121° Southeast 523 602 41,000  Level FlightAware Transoceanic
Fri 13:19:00 43.0606 -132.3380 121° Southeast 523 602 41,000  Level FlightAware Transoceanic
Fri 13:20:00 42.9865 -132.1684 121° Southeast 523 602 41,000  Level FlightAware Transoceanic
Fri 13:21:00 42.9120 -131.9991 121° Southeast 523 602 41,000  Level FlightAware Transoceanic
Fri 13:22:00 42.8374 -131.8303 121° Southeast 523 602 41,000  Level FlightAware Transoceanic
Fri 13:23:00 42.7625 -131.6619 121° Southeast 523 602 41,000  Level FlightAware Transoceanic
Fri 13:24:00 42.6873 -131.4939 121° Southeast 523 602 41,000  Level FlightAware Transoceanic
Fri 13:24:29 42.7000 -131.5333 121° Southeast 513 590 41,000  Level Oakland Oceanic (ODAPS)
Fri 13:25:00 42.6119 -131.3263 122° Southeast 523 602 41,000  Level FlightAware Transoceanic
Fri 13:26:00 42.5363 -131.1591 122° Southeast 523 602 41,000  Level FlightAware Transoceanic
Fri 13:27:00 42.4604 -130.9923 122° Southeast 523 602 41,000  Level FlightAware Transoceanic
Fri 13:28:00 42.3842 -130.8259 122° Southeast 523 602 41,000  Level FlightAware Transoceanic
Fri 13:29:00 42.3079 -130.6599 122° Southeast 523 602 41,000  Level FlightAware Transoceanic
Fri 13:30:00 42.2825 -130.6092 122° Southeast 513 590 41,000  Level FlightAware Transoceanic
Fri 13:31:00 42.2121 -130.4564 122° Southeast 513 590 41,000  Level FlightAware Transoceanic
Fri 13:32:00 42.1416 -130.3039 122° Southeast 513 590 41,000  Level FlightAware Transoceanic
Fri 13:33:00 42.0709 -130.1518 122° Southeast 513 590 41,000  Level FlightAware Transoceanic
Fri 13:34:00 42.0000 -130.0000 120° Southeast 513 590 41,000  Level FlightAware Transoceanic
Fri 13:34:03 42.0000 -130.0000 120° Southeast 504 580 41,000  Level Oakland Oceanic (ODAPS)
Fri 13:35:00 41.9261 -129.8300 120° Southeast 513 590 41,000  Level FlightAware Transoceanic
Fri 13:36:00 41.8520 -129.6604 120° Southeast 513 590 41,000  Level FlightAware Transoceanic
Fri 13:37:00 41.7777 -129.4912 121° Southeast 513 590 41,000  Level FlightAware Transoceanic
Fri 13:38:00 41.7031 -129.3224 121° Southeast 513 590 41,000  Level FlightAware Transoceanic
Fri 13:38:17 41.7000 -129.3000 121° Southeast 508 585 41,000  Level Oakland Oceanic (ODAPS)
Fri 13:39:00 41.6282 -129.1540 121° Southeast 513 590 41,000  Level FlightAware Transoceanic
Fri 13:40:00 41.5769 -129.0390 121° Southeast 504 580 41,000  Level FlightAware Transoceanic
Fri 13:41:00 41.5056 -128.8801 121° Southeast 504 580 41,000  Level FlightAware Transoceanic
Fri 13:42:00 41.4341 -128.7215 121° Southeast 504 580 41,000  Level FlightAware Transoceanic
Fri 13:43:00 41.3624 -128.5633 121° Southeast 504 580 41,000  Level FlightAware Transoceanic
Fri 13:44:00 41.2788 -128.3710 121° Southeast 508 585 41,000  Level FlightAware Transoceanic
Fri 13:45:00 41.2079 -128.2173 122° Southeast 508 585 41,000  Level FlightAware Transoceanic
Fri 13:46:00 41.1368 -128.0640 122° Southeast 508 585 41,000  Level FlightAware Transoceanic
Fri 13:47:00 41.0655 -127.9110 122° Southeast 508 585 41,000  Level FlightAware Transoceanic
Fri 13:48:00 40.9939 -127.7584 122° Southeast 508 585 41,000  Level FlightAware Transoceanic
Fri 13:49:00 40.9222 -127.6060 122° Southeast 508 585 41,000 -57 Level FlightAware Transoceanic
Fri 13:49:46 40.8453 -127.4961 118° Southeast 514 592 40,900  Descending Oakland Center
Fri 13:50:00 40.8503 -127.4540 122° Southeast 508 585 41,000 120 Climbing FlightAware Transoceanic
Fri 13:50:36 40.8500 -127.4500 122° Southeast 524 603 41,000  Level Oakland Oceanic (ODAPS)
Fri 13:51:00 40.7782 -127.3024 122° Southeast 508 585 41,000  Level FlightAware Transoceanic
Fri 13:51:49 40.6922 -127.1322 122° Southeast 519 597 41,000  Level Oakland Center
Fri 13:52:00 40.7058 -127.1510 122° Southeast 508 585 41,000 -97 Level FlightAware Transoceanic
Fri 13:52:51 40.6142 -126.9739 123° Southeast 516 594 40,900  Descending Oakland Center
Fri 13:53:00 40.6333 -127.0000 118° Southeast 508 585 41,000  Climbing FlightAware Transoceanic
Fri 13:53:53 40.5211 -126.8297 130° Southeast 515 593 40,900  Descending Oakland Center
Fri 13:54:00 40.5640 -126.8266 118° Southeast 508 585 41,000 16 Climbing FlightAware Transoceanic
Fri 13:59:38 39.9750 -125.9890 130° Southeast 41,000  Level FlightAware ADS-B
Fri 14:00:14 39.9270 -125.9160 131° Southeast 520 598 41,000  Level FlightAware ADS-B
Fri 14:00:58 39.8530 -125.8030 130° Southeast 519 597 41,000  Level FlightAware ADS-B
Fri 14:01:34 39.7950 -125.7150 131° Southeast 518 596 41,000  Level FlightAware ADS-B
Fri 14:02:03 39.7490 -125.6450 131° Southeast 517 595 41,000  Level FlightAware ADS-B
Fri 14:02:38 39.6970 -125.5660 131° Southeast 516 594 41,000  Level FlightAware ADS-B
Fri 14:03:13 39.6420 -125.4840 131° Southeast 515 593 41,000  Level FlightAware ADS-B
Fri 14:03:54 39.5770 -125.3850 130° Southeast 518 596 41,000  Level FlightAware ADS-B
Fri 14:04:33 39.5150 -125.2930 131° Southeast 519 597 41,000  Level FlightAware ADS-B
Fri 14:05:08 39.4600 -125.2100 131° Southeast 521 600 41,000  Level FlightAware ADS-B
Fri 14:05:52 39.3960 -125.1160 131° Southeast 518 596 41,000  Level FlightAware ADS-B
Fri 14:06:25 39.3410 -125.0340 131° Southeast 517 595 41,000  Level FlightAware ADS-B
Fri 14:07:05 39.2770 -124.9390 131° Southeast 518 596 41,000  Level FlightAware ADS-B
Fri 14:07:43 39.2160 -124.8490 131° Southeast 518 596 41,000  Level FlightAware ADS-B
Fri 14:08:15 39.1650 -124.7730 131° Southeast 518 596 41,000  Level FlightAware ADS-B
Fri 14:08:56 39.1020 -124.6810 131° Southeast 517 595 41,000  Level FlightAware ADS-B
Fri 14:09:29 39.0490 -124.6030 131° Southeast 518 596 41,000  Level FlightAware ADS-B
Fri 14:10:03 38.9970 -124.5270 131° Southeast 518 596 41,000  Level FlightAware ADS-B
Fri 14:10:40 38.9360 -124.4380 131° Southeast 519 597 41,000  Level FlightAware ADS-B
Fri 14:11:09 38.8940 -124.3780 132° Southeast 519 597 41,000  Level FlightAware ADS-B
Fri 14:11:50 38.8250 -124.2770 131° Southeast 517 595 41,000  Level FlightAware ADS-B
Fri 14:12:27 38.7670 -124.1930 132° Southeast 517 595 41,000  Level FlightAware ADS-B
Fri 14:12:59 38.7150 -124.1180 132° Southeast 519 597 41,000  Level FlightAware ADS-B
Fri 14:13:37 38.6550 -124.0320 132° Southeast 521 600 41,000  Level FlightAware ADS-B
Fri 14:14:07 38.6050 -123.9610 132° Southeast 522 601 41,000  Level FlightAware ADS-B
Fri 14:14:42 38.5490 -123.8800 131° Southeast 522 601 41,000  Level FlightAware ADS-B
Fri 14:15:20 38.4880 -123.7940 132° Southeast 524 603 41,000  Level FlightAware ADS-B
Fri 14:15:54 38.4350 -123.7180 132° Southeast 525 604 41,000  Level FlightAware ADS-B
Fri 14:16:31 38.3740 -123.6320 132° Southeast 525 604 41,000  Level FlightAware ADS-B
Fri 14:17:04 38.3230 -123.5580 131° Southeast 526 605 41,000  Level FlightAware ADS-B
Fri 14:17:39 38.2720 -123.4870 132° Southeast 525 604 41,000  Level FlightAware ADS-B
Fri 14:18:16 38.2080 -123.3960 132° Southeast 525 604 41,000  Level FlightAware ADS-B
Fri 14:18:49 38.1540 -123.3210 132° Southeast 526 605 41,000  Level FlightAware ADS-B
Fri 14:19:29 38.0850 -123.2240 132° Southeast 526 605 41,000  Level FlightAware ADS-B
Fri 14:20:09 38.0200 -123.1330 132° Southeast 528 608 41,000  Level FlightAware ADS-B
Fri 14:20:40 37.9680 -123.0600 132° Southeast 528 608 41,000  Level FlightAware ADS-B
Fri 14:21:17 37.9090 -122.9780 132° Southeast 528 608 41,000  Level FlightAware ADS-B
Fri 14:21:53 37.8480 -122.8940 133° Southeast 530 610 41,000  Level FlightAware ADS-B
Fri 14:22:25 37.7950 -122.8210 133° Southeast 533 613 41,000  Level FlightAware ADS-B
Fri 14:23:01 37.7340 -122.7360 132° Southeast 534 615 41,000  Level FlightAware ADS-B
Fri 14:23:37 37.6750 -122.6550 133° Southeast 535 616 41,000  Level FlightAware ADS-B
Fri 14:24:09 37.6210 -122.5800 132° Southeast 535 616 41,000  Level FlightAware ADS-B
Fri 14:24:45 37.5620 -122.4990 133° Southeast 537 618 41,000  Level FlightAware ADS-B
Fri 14:25:21 37.4990 -122.4130 133° Southeast 537 618 41,000  Level FlightAware ADS-B
Fri 14:25:57 37.4390 -122.3320 133° Southeast 535 616 41,000  Level FlightAware ADS-B
Fri 14:26:08 37.4215 -122.3080 133° Southeast 535 616 41,000  Level FlightAware ADS-B
Fri 14:26:45 37.3594 -122.2230 133° Southeast 532 612 41,000  Level FlightAware ADS-B
Fri 14:27:17 37.3057 -122.1510 133° Southeast 531 611 41,000  Level FlightAware ADS-B
Fri 14:27:47 37.2558 -122.0830 133° Southeast 525 604 41,000  Level FlightAware ADS-B
Fri 14:28:17 37.2080 -122.0190 133° Southeast 513 590 41,000  Level FlightAware ADS-B
Fri 14:28:27 37.1909 -121.9950 132° Southeast 512 589 41,000  Level FlightAware ADS-B
Fri 14:28:59 37.1406 -121.9280 133° Southeast 507 583 41,000  Level FlightAware ADS-B
Fri 14:29:29 37.0915 -121.8620 133° Southeast 505 581 41,000  Level FlightAware ADS-B
Fri 14:29:59 37.0438 -121.7980 133° Southeast 505 581 41,000  Level FlightAware ADS-B
Fri 14:30:31 36.9925 -121.7290 133° Southeast 505 581 41,000  Level FlightAware ADS-B
Fri 14:31:02 36.9436 -121.6640 133° Southeast 506 582 41,000  Level FlightAware ADS-B
Fri 14:31:32 36.8957 -121.6000 133° Southeast 507 583 41,000  Level FlightAware ADS-B
Fri 14:32:22 36.8161 -121.4940 133° Southeast 507 583 41,000  Level FlightAware ADS-B
Fri 14:32:55 36.7618 -121.4220 133° Southeast 507 583 41,000  Level FlightAware ADS-B
Fri 14:33:27 36.7116 -121.3560 133° Southeast 508 585 41,000  Level FlightAware ADS-B
Fri 14:34:00 36.6575 -121.2840 133° Southeast 508 585 41,000  Level FlightAware ADS-B
Fri 14:34:41 36.5930 -121.1990 133° Southeast 505 581 41,000  Level FlightAware ADS-B
Fri 14:35:23 36.5260 -121.1110 133° Southeast 506 582 41,000  Level FlightAware ADS-B
Fri 14:35:59 36.4670 -121.0350 134° Southeast 507 583 41,000  Level FlightAware ADS-B
Fri 14:36:31 36.4150 -120.9670 134° Southeast 505 581 41,000  Level FlightAware ADS-B
Fri 14:37:09 36.3560 -120.8900 134° Southeast 505 581 41,000  Level FlightAware ADS-B
Fri 14:37:35 36.3130 -120.8340 134° Southeast 505 581 41,000  Level FlightAware ADS-B
Fri 14:38:11 36.2560 -120.7600 134° Southeast 505 581 41,000  Level FlightAware ADS-B
Fri 14:38:47 36.1990 -120.6850 133° Southeast 505 581 41,000  Level FlightAware ADS-B
Fri 14:39:24 36.1370 -120.6050 134° Southeast 504 580 41,000  Level FlightAware ADS-B
Fri 14:40:00 36.0780 -120.5300 134° Southeast 504 580 41,000  Level FlightAware ADS-B
Fri 14:40:32 36.0280 -120.4640 133° Southeast 503 579 41,000  Level FlightAware ADS-B
Fri 14:41:08 35.9700 -120.3910 134° Southeast 502 578 41,000  Level FlightAware ADS-B
Fri 14:41:40 35.9180 -120.3240 134° Southeast 500 575 41,000  Level FlightAware ADS-B
Fri 14:42:12 35.8660 -120.2570 134° Southeast 499 574 41,000  Level FlightAware ADS-B
Fri 14:42:53 35.8020 -120.1760 134° Southeast 497 572 41,000  Level FlightAware ADS-B
Fri 14:43:29 35.7440 -120.1020 134° Southeast 498 573 41,000  Level FlightAware ADS-B
Fri 14:44:01 35.6920 -120.0360 134° Southeast 499 574 41,000  Level FlightAware ADS-B
Fri 14:44:39 35.6280 -119.9630 137° Southeast 495 570 41,000  Level FlightAware ADS-B
Fri 14:45:12 35.5670 -119.9090 144° Southeast 493 567 41,000 -583 Level FlightAware ADS-B
Fri 14:45:51 35.4960 -119.8480 145° Southeast 503 579 40,300 -1,543 Descending FlightAware ADS-B
Fri 14:46:22 35.4360 -119.7960 145° Southeast 513 590 39,200 -1,254 Descending FlightAware ADS-B
Fri 14:46:58 35.3740 -119.7420 145° Southeast 515 593 38,900 -2,447 Descending FlightAware ADS-B
Fri 14:47:38 35.2900 -119.6710 145° Southeast 517 595 36,100 -3,680 Descending FlightAware ADS-B
Fri 14:48:13 35.2170 -119.6080 145° Southeast 530 610 34,300 -3,086 Descending FlightAware ADS-B
Fri 14:48:48 35.1470 -119.5490 145° Southeast 534 615 32,500 -3,391 Descending FlightAware ADS-B
Fri 14:49:22 35.0750 -119.4870 145° Southeast 531 611 30,400 -3,514 Descending FlightAware ADS-B
Fri 14:49:58 35.0060 -119.4280 145° Southeast 534 615 28,400 -3,120 Descending FlightAware ADS-B
Fri 14:50:37 34.9220 -119.3570 145° Southeast 534 615 26,500 -2,829 Descending FlightAware ADS-B
Fri 14:51:08 34.8600 -119.3050 145° Southeast 528 608 25,100 -2,677 Descending FlightAware ADS-B
Fri 14:51:42 34.7930 -119.2480 145° Southeast 514 592 23,600 -2,620 Descending FlightAware ADS-B
Fri 14:52:19 34.7220 -119.1880 145° Southeast 508 585 22,000 -2,571 Descending FlightAware ADS-B
Fri 14:52:52 34.6560 -119.1320 145° Southeast 490 564 20,600 -2,522 Descending FlightAware ADS-B
Fri 14:53:28 34.5900 -119.0760 145° Southeast 478 550 19,100 -2,486 Descending FlightAware ADS-B
Fri 14:54:02 34.5280 -119.0240 145° Southeast 472 543 17,700 -2,400 Descending FlightAware ADS-B
Fri 14:54:38 34.4660 -118.9730 146° Southeast 452 520 16,300 -2,400 Descending FlightAware ADS-B
Fri 14:55:12 34.4050 -118.9220 145° Southeast 438 504 14,900 -2,270 Descending FlightAware ADS-B
Fri 14:55:52 34.3420 -118.8790 151° Southeast 438 504 13,500 -2,057 Descending FlightAware ADS-B
Fri 14:56:22 34.2810 -118.8540 161° South 417 480 12,500 -1,182 Descending FlightAware ADS-B
Fri 14:56:58 34.2140 -118.8290 163° South 387 445 12,200 -600 Descending FlightAware ADS-B
Fri 14:57:32 34.1570 -118.8080 163° South 353 406 11,800 -930 Descending FlightAware ADS-B
Fri 14:58:09 34.1000 -118.7870 163° South 340 391 11,100 -1,452 Descending FlightAware ADS-B
Fri 14:58:34 34.0620 -118.7690 159° South 339 390 10,300 -1,765 Descending FlightAware ADS-B
Fri 14:58:43 34.0510 -118.7580 140° Southeast 346 398 10,100 -947 Descending FlightAware ADS-B
Fri 14:58:53 34.0420 -118.7420 124° Southeast 342 394 10,000 -600 Descending FlightAware ADS-B
Fri 14:59:03 34.0360 -118.7260 114° Southeast 338 389 9,900 -286 Descending FlightAware ADS-B
Fri 14:59:14 34.0340 -118.7060 97° East 323 372 9,900  Level FlightAware ADS-B
Fri 14:59:34 34.0300 -118.6700 98° East 306 352 9,900 -162 Level FlightAware ADS-B
Fri 14:59:51 34.0280 -118.6450 96° East 296 341 9,800 -600 Descending FlightAware ADS-B
Fri 15:00:04 34.0260 -118.6240 97° East 293 337 9,600 -1,105 Descending FlightAware ADS-B
Fri 15:00:29 34.0220 -118.5820 97° East 288 331 9,100 -1,125 Descending FlightAware ADS-B
Fri 15:00:52 34.0190 -118.5540 97° East 289 333 8,700 -1,227 Descending FlightAware ADS-B
Fri 15:01:13 34.0150 -118.5090 96° East 287 330 8,200 -1,043 Descending FlightAware ADS-B
Fri 15:01:38 34.0120 -118.4730 96° East 273 314 7,900 -982 Descending FlightAware ADS-B
Fri 15:02:08 34.0140 -118.4280 87° East 251 289 7,300 -1,200 Descending FlightAware ADS-B
Fri 15:02:23 34.0170 -118.4070 80° East 241 277 7,000 -857 Descending FlightAware ADS-B
Fri 15:02:50 34.0220 -118.3720 80° East 230 265 6,700 -612 Descending FlightAware ADS-B
Fri 15:03:12 34.0250 -118.3450 82° East 220 253 6,500 -600 Descending FlightAware ADS-B
Fri 15:03:30 34.0280 -118.3240 80° East 207 238 6,300 -857 Descending FlightAware ADS-B
Fri 15:03:54 34.0310 -118.3010 81° East 177 204 5,900 -1,364 Descending FlightAware ADS-B
Fri 15:04:14 34.0330 -118.2820 83° East 168 193 5,300 -1,875 Descending FlightAware ADS-B
Fri 15:04:42 34.0280 -118.2570 104° East 171 197 4,400 -1,846 Descending FlightAware ADS-B
Fri 15:04:53 34.0200 -118.2520 153° Southeast 173 199 4,100 -1,071 Descending FlightAware ADS-B
Fri 15:05:10 34.0130 -118.2510 173° South 168 193 3,900 -973 Descending FlightAware ADS-B
Fri 15:05:30 34.0010 -118.2520 184° South 175 201 3,500 -2,057 Descending FlightAware ADS-B
Fri 15:05:45 33.9790 -118.2650 206° Southwest 180 207 2,700 -2,400 Descending FlightAware ADS-B
Fri 15:05:55 33.9720 -118.2710 215° Southwest 181 208 2,500 -1,043 Descending FlightAware ADS-B
Fri 15:06:08 33.9700 -118.2730 220° Southwest 181 208 2,300 -889 Descending FlightAware ADS-B
Fri 15:06:22 33.9630 -118.2950 249° West 174 200 2,100 -766 Descending FlightAware ADS-B
Fri 15:06:55 33.9610 -118.3200 264° West 170 196 1,700 -1,180 Descending FlightAware ADS-B
Fri 15:07:23 33.9570 -118.3510 261° West 155 178 900 -1,269 Descending FlightAware ADS-B
Fri 15:07:47 33.9550 -118.3710 263° West 149 171 600 -682 Descending FlightAware ADS-B
Fri 15:08:07 33.9540 -118.3850 265° West 146 168 400 -750 Descending FlightAware ADS-B
Fri 15:08:27 33.9520 -118.4030 262° West 149 171 100 -340 Descending FlightAware ADS-B
Fri 15:09:00 33.9500 -118.4230 263° West 147 169 100  Level FlightAware ADS-B

Login

Don't have an account? Register now (free) for customized features, flight alerts, and more!